sensor_id;sensor_type;location;lat;lon;timestamp;temperature;humidity
36800;DHT22;22752;51.960;5.886;2024-01-27T00:01:22;2.40;99.90
36800;DHT22;22752;51.960;5.886;2024-01-27T00:03:48;2.40;99.90
36800;DHT22;22752;51.960;5.886;2024-01-27T00:06:15;2.30;99.90
36800;DHT22;22752;51.960;5.886;2024-01-27T00:08:41;2.30;99.90
36800;DHT22;22752;51.960;5.886;2024-01-27T00:11:06;2.30;99.90
36800;DHT22;22752;51.960;5.886;2024-01-27T00:13:32;2.30;99.90
36800;DHT22;22752;51.960;5.886;2024-01-27T00:15:58;2.30;99.90
36800;DHT22;22752;51.960;5.886;2024-01-27T00:18:23;2.30;99.90
36800;DHT22;22752;51.960;5.886;2024-01-27T00:20:49;2.20;99.90
36800;DHT22;22752;51.960;5.886;2024-01-27T00:23:15;2.20;99.90
36800;DHT22;22752;51.960;5.886;2024-01-27T00:25:40;2.20;99.90
36800;DHT22;22752;51.960;5.886;2024-01-27T00:28:06;2.20;99.90
36800;DHT22;22752;51.960;5.886;2024-01-27T00:30:32;2.20;99.90
36800;DHT22;22752;51.960;5.886;2024-01-27T00:32:57;2.20;99.90
36800;DHT22;22752;51.960;5.886;2024-01-27T00:35:23;2.10;99.90
36800;DHT22;22752;51.960;5.886;2024-01-27T00:37:48;2.10;99.90
36800;DHT22;22752;51.960;5.886;2024-01-27T00:40:14;2.10;99.90
36800;DHT22;22752;51.960;5.886;2024-01-27T00:42:40;2.10;99.90
36800;DHT22;22752;51.960;5.886;2024-01-27T00:45:06;2.10;99.90
36800;DHT22;22752;51.960;5.886;2024-01-27T00:47:32;2.00;99.90
36800;DHT22;22752;51.960;5.886;2024-01-27T00:49:58;2.10;99.90
36800;DHT22;22752;51.960;5.886;2024-01-27T00:52:23;2.00;99.90
36800;DHT22;22752;51.960;5.886;2024-01-27T00:54:49;2.00;99.90
36800;DHT22;22752;51.960;5.886;2024-01-27T00:57:15;1.90;99.90
36800;DHT22;22752;51.960;5.886;2024-01-27T00:59:41;1.90;99.90
36800;DHT22;22752;51.960;5.886;2024-01-27T01:02:07;1.90;99.90
36800;DHT22;22752;51.960;5.886;2024-01-27T01:04:32;1.80;99.90
36800;DHT22;22752;51.960;5.886;2024-01-27T01:06:58;1.80;99.90
36800;DHT22;22752;51.960;5.886;2024-01-27T01:09:24;1.80;99.90
36800;DHT22;22752;51.960;5.886;2024-01-27T01:11:50;1.70;99.90
36800;DHT22;22752;51.960;5.886;2024-01-27T01:14:16;1.70;99.90
36800;DHT22;22752;51.960;5.886;2024-01-27T01:16:41;1.60;99.90
36800;DHT22;22752;51.960;5.886;2024-01-27T01:19:07;1.70;99.90
36800;DHT22;22752;51.960;5.886;2024-01-27T01:21:33;1.60;99.90
36800;DHT22;22752;51.960;5.886;2024-01-27T01:23:59;1.60;99.90
36800;DHT22;22752;51.960;5.886;2024-01-27T01:26:25;1.60;99.90
36800;DHT22;22752;51.960;5.886;2024-01-27T01:28:51;1.60;99.90
36800;DHT22;22752;51.960;5.886;2024-01-27T01:31:17;1.60;99.90
36800;DHT22;22752;51.960;5.886;2024-01-27T01:33:43;1.50;99.90
36800;DHT22;22752;51.960;5.886;2024-01-27T01:36:09;1.50;99.90
36800;DHT22;22752;51.960;5.886;2024-01-27T01:38:34;1.40;99.90
36800;DHT22;22752;51.960;5.886;2024-01-27T01:41:00;1.40;99.90
36800;DHT22;22752;51.960;5.886;2024-01-27T01:43:26;1.40;99.90
36800;DHT22;22752;51.960;5.886;2024-01-27T01:45:52;1.30;99.90
36800;DHT22;22752;51.960;5.886;2024-01-27T01:48:20;1.30;99.90
36800;DHT22;22752;51.960;5.886;2024-01-27T01:50:46;1.30;99.90
36800;DHT22;22752;51.960;5.886;2024-01-27T01:53:13;1.20;99.90
36800;DHT22;22752;51.960;5.886;2024-01-27T01:55:39;1.20;99.90
36800;DHT22;22752;51.960;5.886;2024-01-27T01:58:05;1.10;99.90
36800;DHT22;22752;51.960;5.886;2024-01-27T02:00:32;1.20;99.90
36800;DHT22;22752;51.960;5.886;2024-01-27T02:02:58;1.10;99.90
36800;DHT22;22752;51.960;5.886;2024-01-27T02:05:24;1.10;99.90
36800;DHT22;22752;51.960;5.886;2024-01-27T02:07:50;1.10;99.90
36800;DHT22;22752;51.960;5.886;2024-01-27T02:10:17;1.10;99.90
36800;DHT22;22752;51.960;5.886;2024-01-27T02:12:43;1.10;99.90
36800;DHT22;22752;51.960;5.886;2024-01-27T02:15:13;1.10;99.90
36800;DHT22;22752;51.960;5.886;2024-01-27T02:17:39;1.10;99.90
36800;DHT22;22752;51.960;5.886;2024-01-27T02:20:06;1.10;99.90
36800;DHT22;22752;51.960;5.886;2024-01-27T02:22:33;1.10;99.90
36800;DHT22;22752;51.960;5.886;2024-01-27T02:24:58;1.10;99.90
36800;DHT22;22752;51.960;5.886;2024-01-27T02:27:24;1.10;99.90
36800;DHT22;22752;51.960;5.886;2024-01-27T02:29:50;1.10;99.90
36800;DHT22;22752;51.960;5.886;2024-01-27T02:32:15;1.10;99.90
36800;DHT22;22752;51.960;5.886;2024-01-27T02:34:41;1.00;99.90
36800;DHT22;22752;51.960;5.886;2024-01-27T02:37:07;1.00;99.90
36800;DHT22;22752;51.960;5.886;2024-01-27T02:39:32;1.00;99.90
36800;DHT22;22752;51.960;5.886;2024-01-27T02:41:58;1.00;99.90
36800;DHT22;22752;51.960;5.886;2024-01-27T02:44:23;1.00;99.90
36800;DHT22;22752;51.960;5.886;2024-01-27T02:46:49;1.00;99.90
36800;DHT22;22752;51.960;5.886;2024-01-27T02:49:15;0.90;99.90
36800;DHT22;22752;51.960;5.886;2024-01-27T02:51:40;0.90;99.90
36800;DHT22;22752;51.960;5.886;2024-01-27T02:54:06;0.80;99.90
36800;DHT22;22752;51.960;5.886;2024-01-27T02:56:32;0.80;99.90
36800;DHT22;22752;51.960;5.886;2024-01-27T02:58:57;0.90;99.90
36800;DHT22;22752;51.960;5.886;2024-01-27T03:01:23;0.80;99.90
36800;DHT22;22752;51.960;5.886;2024-01-27T03:03:50;0.90;99.90
36800;DHT22;22752;51.960;5.886;2024-01-27T03:06:15;0.80;99.90
36800;DHT22;22752;51.960;5.886;2024-01-27T03:08:41;0.80;99.90
36800;DHT22;22752;51.960;5.886;2024-01-27T03:11:06;0.80;99.90
36800;DHT22;22752;51.960;5.886;2024-01-27T03:13:32;0.70;99.90
36800;DHT22;22752;51.960;5.886;2024-01-27T03:15:58;0.80;99.90
36800;DHT22;22752;51.960;5.886;2024-01-27T03:18:23;0.80;99.90
36800;DHT22;22752;51.960;5.886;2024-01-27T03:20:50;0.70;99.90
36800;DHT22;22752;51.960;5.886;2024-01-27T03:23:16;0.70;99.90
36800;DHT22;22752;51.960;5.886;2024-01-27T03:25:41;0.70;99.90
36800;DHT22;22752;51.960;5.886;2024-01-27T03:28:07;0.60;99.90
36800;DHT22;22752;51.960;5.886;2024-01-27T03:30:32;0.60;99.90
36800;DHT22;22752;51.960;5.886;2024-01-27T03:32:58;0.70;99.90
36800;DHT22;22752;51.960;5.886;2024-01-27T03:35:24;0.60;99.90
36800;DHT22;22752;51.960;5.886;2024-01-27T03:37:49;0.60;99.90
36800;DHT22;22752;51.960;5.886;2024-01-27T03:40:17;0.60;99.90
36800;DHT22;22752;51.960;5.886;2024-01-27T03:42:45;0.50;99.90
36800;DHT22;22752;51.960;5.886;2024-01-27T03:45:10;0.50;99.90
36800;DHT22;22752;51.960;5.886;2024-01-27T03:47:36;0.50;99.90
36800;DHT22;22752;51.960;5.886;2024-01-27T03:50:02;0.50;99.90
36800;DHT22;22752;51.960;5.886;2024-01-27T03:52:27;0.40;99.90
36800;DHT22;22752;51.960;5.886;2024-01-27T03:54:53;0.40;99.90
36800;DHT22;22752;51.960;5.886;2024-01-27T03:57:19;0.40;99.90
36800;DHT22;22752;51.960;5.886;2024-01-27T03:59:44;0.40;99.90
36800;DHT22;22752;51.960;5.886;2024-01-27T04:02:10;0.40;99.90
36800;DHT22;22752;51.960;5.886;2024-01-27T04:04:36;0.50;99.90
36800;DHT22;22752;51.960;5.886;2024-01-27T04:07:01;0.40;99.90
36800;DHT22;22752;51.960;5.886;2024-01-27T04:09:27;0.40;99.90
36800;DHT22;22752;51.960;5.886;2024-01-27T04:11:53;0.40;99.90
36800;DHT22;22752;51.960;5.886;2024-01-27T04:14:18;0.30;99.90
36800;DHT22;22752;51.960;5.886;2024-01-27T04:16:44;0.30;99.90
36800;DHT22;22752;51.960;5.886;2024-01-27T04:19:10;0.30;99.90
36800;DHT22;22752;51.960;5.886;2024-01-27T04:21:35;0.30;99.90
36800;DHT22;22752;51.960;5.886;2024-01-27T04:24:01;0.30;99.90
36800;DHT22;22752;51.960;5.886;2024-01-27T04:26:27;0.30;99.90
36800;DHT22;22752;51.960;5.886;2024-01-27T04:28:53;0.30;99.90
36800;DHT22;22752;51.960;5.886;2024-01-27T04:31:19;0.30;99.90
36800;DHT22;22752;51.960;5.886;2024-01-27T04:33:44;0.30;99.90
36800;DHT22;22752;51.960;5.886;2024-01-27T04:36:10;0.30;99.90
36800;DHT22;22752;51.960;5.886;2024-01-27T04:38:36;0.30;99.90
36800;DHT22;22752;51.960;5.886;2024-01-27T04:41:02;0.30;99.90
36800;DHT22;22752;51.960;5.886;2024-01-27T04:43:28;0.30;99.90
36800;DHT22;22752;51.960;5.886;2024-01-27T04:45:54;0.20;99.90
36800;DHT22;22752;51.960;5.886;2024-01-27T04:48:20;0.20;99.90
36800;DHT22;22752;51.960;5.886;2024-01-27T04:50:45;0.20;99.90
36800;DHT22;22752;51.960;5.886;2024-01-27T04:53:12;0.20;99.90
36800;DHT22;22752;51.960;5.886;2024-01-27T04:55:38;0.20;99.90
36800;DHT22;22752;51.960;5.886;2024-01-27T04:58:04;0.20;99.90
36800;DHT22;22752;51.960;5.886;2024-01-27T05:00:30;0.20;99.90
36800;DHT22;22752;51.960;5.886;2024-01-27T05:02:56;0.10;99.90
36800;DHT22;22752;51.960;5.886;2024-01-27T05:05:24;0.10;99.90
36800;DHT22;22752;51.960;5.886;2024-01-27T05:07:50;0.10;99.90
36800;DHT22;22752;51.960;5.886;2024-01-27T05:10:16;0.10;99.90
36800;DHT22;22752;51.960;5.886;2024-01-27T05:12:42;0.00;99.90
36800;DHT22;22752;51.960;5.886;2024-01-27T05:15:09;0.00;99.90
36800;DHT22;22752;51.960;5.886;2024-01-27T05:17:35;0.00;99.90
36800;DHT22;22752;51.960;5.886;2024-01-27T05:20:01;0.00;99.90
36800;DHT22;22752;51.960;5.886;2024-01-27T05:22:29;0.10;99.90
36800;DHT22;22752;51.960;5.886;2024-01-27T05:24:55;0.10;99.90
36800;DHT22;22752;51.960;5.886;2024-01-27T05:27:21;0.10;99.90
36800;DHT22;22752;51.960;5.886;2024-01-27T05:29:46;0.10;99.90
36800;DHT22;22752;51.960;5.886;2024-01-27T05:32:12;0.10;99.90
36800;DHT22;22752;51.960;5.886;2024-01-27T05:34:37;0.10;99.90
36800;DHT22;22752;51.960;5.886;2024-01-27T05:37:03;0.10;99.90
36800;DHT22;22752;51.960;5.886;2024-01-27T05:39:29;0.10;99.90
36800;DHT22;22752;51.960;5.886;2024-01-27T05:41:55;0.10;99.90
36800;DHT22;22752;51.960;5.886;2024-01-27T05:44:20;0.00;99.90
36800;DHT22;22752;51.960;5.886;2024-01-27T05:46:46;0.10;99.90
36800;DHT22;22752;51.960;5.886;2024-01-27T05:49:12;0.10;99.90
36800;DHT22;22752;51.960;5.886;2024-01-27T05:51:38;0.10;99.90
36800;DHT22;22752;51.960;5.886;2024-01-27T05:54:03;0.10;99.90
36800;DHT22;22752;51.960;5.886;2024-01-27T05:56:29;0.00;99.90
36800;DHT22;22752;51.960;5.886;2024-01-27T05:58:55;0.10;99.90
36800;DHT22;22752;51.960;5.886;2024-01-27T06:01:21;0.00;99.90
36800;DHT22;22752;51.960;5.886;2024-01-27T06:03:46;0.00;99.90
36800;DHT22;22752;51.960;5.886;2024-01-27T06:06:12;0.00;99.90
36800;DHT22;22752;51.960;5.886;2024-01-27T06:08:38;0.00;99.90
36800;DHT22;22752;51.960;5.886;2024-01-27T06:11:04;0.10;99.90
36800;DHT22;22752;51.960;5.886;2024-01-27T06:13:30;0.10;99.90
36800;DHT22;22752;51.960;5.886;2024-01-27T06:15:55;0.10;99.90
36800;DHT22;22752;51.960;5.886;2024-01-27T06:18:21;0.10;99.90
36800;DHT22;22752;51.960;5.886;2024-01-27T06:20:47;0.10;99.90
36800;DHT22;22752;51.960;5.886;2024-01-27T06:23:13;0.00;99.90
36800;DHT22;22752;51.960;5.886;2024-01-27T06:25:38;0.00;99.90
36800;DHT22;22752;51.960;5.886;2024-01-27T06:28:04;0.00;99.90
36800;DHT22;22752;51.960;5.886;2024-01-27T06:30:30;0.00;99.90
36800;DHT22;22752;51.960;5.886;2024-01-27T06:32:55;0.00;99.90
36800;DHT22;22752;51.960;5.886;2024-01-27T06:35:21;0.00;99.90
36800;DHT22;22752;51.960;5.886;2024-01-27T06:37:47;-0.10;99.90
36800;DHT22;22752;51.960;5.886;2024-01-27T06:40:13;-0.10;99.90
36800;DHT22;22752;51.960;5.886;2024-01-27T06:42:38;-0.10;99.90
36800;DHT22;22752;51.960;5.886;2024-01-27T06:45:04;0.00;99.90
36800;DHT22;22752;51.960;5.886;2024-01-27T06:47:31;0.00;99.90
36800;DHT22;22752;51.960;5.886;2024-01-27T06:49:56;0.00;99.90
36800;DHT22;22752;51.960;5.886;2024-01-27T06:52:22;0.00;99.90
36800;DHT22;22752;51.960;5.886;2024-01-27T06:54:47;0.00;99.90
36800;DHT22;22752;51.960;5.886;2024-01-27T06:59:49;0.10;99.90
36800;DHT22;22752;51.960;5.886;2024-01-27T07:02:22;0.10;99.90
36800;DHT22;22752;51.960;5.886;2024-01-27T07:04:48;0.10;99.90
36800;DHT22;22752;51.960;5.886;2024-01-27T07:07:14;0.10;99.90
36800;DHT22;22752;51.960;5.886;2024-01-27T07:09:39;0.10;99.90
36800;DHT22;22752;51.960;5.886;2024-01-27T07:12:05;0.10;99.90
36800;DHT22;22752;51.960;5.886;2024-01-27T07:14:31;0.10;99.90
36800;DHT22;22752;51.960;5.886;2024-01-27T07:16:57;0.10;99.90
36800;DHT22;22752;51.960;5.886;2024-01-27T07:19:22;0.00;99.90
36800;DHT22;22752;51.960;5.886;2024-01-27T07:21:48;0.00;99.90
36800;DHT22;22752;51.960;5.886;2024-01-27T07:24:13;0.00;99.90
36800;DHT22;22752;51.960;5.886;2024-01-27T07:26:39;-0.10;99.90
36800;DHT22;22752;51.960;5.886;2024-01-27T07:29:05;-0.10;99.90
36800;DHT22;22752;51.960;5.886;2024-01-27T07:31:30;-0.10;99.90
36800;DHT22;22752;51.960;5.886;2024-01-27T07:33:56;0.00;99.90
36800;DHT22;22752;51.960;5.886;2024-01-27T07:36:22;0.00;99.90
36800;DHT22;22752;51.960;5.886;2024-01-27T07:38:48;0.00;99.90
36800;DHT22;22752;51.960;5.886;2024-01-27T07:41:13;0.00;99.90
36800;DHT22;22752;51.960;5.886;2024-01-27T07:43:39;0.10;99.90
36800;DHT22;22752;51.960;5.886;2024-01-27T07:46:05;0.00;99.90
36800;DHT22;22752;51.960;5.886;2024-01-27T07:48:30;0.00;99.90
36800;DHT22;22752;51.960;5.886;2024-01-27T07:50:56;0.00;99.90
36800;DHT22;22752;51.960;5.886;2024-01-27T07:53:23;0.10;99.90
36800;DHT22;22752;51.960;5.886;2024-01-27T07:55:48;0.10;99.90
36800;DHT22;22752;51.960;5.886;2024-01-27T07:58:16;0.20;99.90
36800;DHT22;22752;51.960;5.886;2024-01-27T08:00:42;0.20;99.90
36800;DHT22;22752;51.960;5.886;2024-01-27T08:03:07;0.30;99.90
36800;DHT22;22752;51.960;5.886;2024-01-27T08:05:33;0.40;99.90
36800;DHT22;22752;51.960;5.886;2024-01-27T08:07:58;0.40;99.90
36800;DHT22;22752;51.960;5.886;2024-01-27T08:10:24;0.50;99.90
36800;DHT22;22752;51.960;5.886;2024-01-27T08:12:50;0.50;99.90
36800;DHT22;22752;51.960;5.886;2024-01-27T08:15:15;0.60;99.90
36800;DHT22;22752;51.960;5.886;2024-01-27T08:17:41;0.60;99.90
36800;DHT22;22752;51.960;5.886;2024-01-27T08:20:07;0.70;99.90
36800;DHT22;22752;51.960;5.886;2024-01-27T08:22:34;0.80;99.90
36800;DHT22;22752;51.960;5.886;2024-01-27T08:24:59;0.80;99.90
36800;DHT22;22752;51.960;5.886;2024-01-27T08:27:25;0.90;99.90
36800;DHT22;22752;51.960;5.886;2024-01-27T08:29:51;1.00;99.90
36800;DHT22;22752;51.960;5.886;2024-01-27T08:32:16;1.00;99.90
36800;DHT22;22752;51.960;5.886;2024-01-27T08:34:42;1.10;99.90
36800;DHT22;22752;51.960;5.886;2024-01-27T08:37:17;1.20;99.90
36800;DHT22;22752;51.960;5.886;2024-01-27T08:39:43;1.30;99.90
36800;DHT22;22752;51.960;5.886;2024-01-27T08:42:09;1.40;99.90
36800;DHT22;22752;51.960;5.886;2024-01-27T08:44:35;1.40;99.90
36800;DHT22;22752;51.960;5.886;2024-01-27T08:47:00;1.50;99.90
36800;DHT22;22752;51.960;5.886;2024-01-27T08:49:26;1.70;99.90
36800;DHT22;22752;51.960;5.886;2024-01-27T08:51:51;1.80;99.90
36800;DHT22;22752;51.960;5.886;2024-01-27T08:54:17;1.90;99.90
36800;DHT22;22752;51.960;5.886;2024-01-27T08:56:43;2.00;99.90
36800;DHT22;22752;51.960;5.886;2024-01-27T08:59:08;2.10;99.90
36800;DHT22;22752;51.960;5.886;2024-01-27T09:01:34;2.20;99.90
36800;DHT22;22752;51.960;5.886;2024-01-27T09:03:59;2.20;99.90
36800;DHT22;22752;51.960;5.886;2024-01-27T09:06:26;2.30;99.90
36800;DHT22;22752;51.960;5.886;2024-01-27T09:08:51;2.30;99.90
36800;DHT22;22752;51.960;5.886;2024-01-27T09:11:17;2.40;99.90
36800;DHT22;22752;51.960;5.886;2024-01-27T09:13:42;2.50;99.90
36800;DHT22;22752;51.960;5.886;2024-01-27T09:16:10;2.60;99.90
36800;DHT22;22752;51.960;5.886;2024-01-27T09:18:38;2.70;99.90
36800;DHT22;22752;51.960;5.886;2024-01-27T09:21:04;2.70;99.90
36800;DHT22;22752;51.960;5.886;2024-01-27T09:23:30;2.80;99.90
36800;DHT22;22752;51.960;5.886;2024-01-27T09:25:55;2.90;99.90
36800;DHT22;22752;51.960;5.886;2024-01-27T09:28:21;2.90;99.90
36800;DHT22;22752;51.960;5.886;2024-01-27T09:30:47;2.80;99.90
36800;DHT22;22752;51.960;5.886;2024-01-27T09:33:12;2.90;99.90
36800;DHT22;22752;51.960;5.886;2024-01-27T09:35:38;2.90;99.90
36800;DHT22;22752;51.960;5.886;2024-01-27T09:38:04;2.90;99.90
36800;DHT22;22752;51.960;5.886;2024-01-27T09:40:30;2.90;99.90
36800;DHT22;22752;51.960;5.886;2024-01-27T09:42:59;2.90;99.90
36800;DHT22;22752;51.960;5.886;2024-01-27T09:45:25;2.90;99.90
36800;DHT22;22752;51.960;5.886;2024-01-27T09:47:51;2.90;99.90
36800;DHT22;22752;51.960;5.886;2024-01-27T09:50:18;3.00;99.90
36800;DHT22;22752;51.960;5.886;2024-01-27T09:52:44;3.10;99.90
36800;DHT22;22752;51.960;5.886;2024-01-27T09:55:10;3.10;99.90
36800;DHT22;22752;51.960;5.886;2024-01-27T09:57:40;3.20;99.90
36800;DHT22;22752;51.960;5.886;2024-01-27T10:00:09;3.20;99.90
36800;DHT22;22752;51.960;5.886;2024-01-27T10:02:40;3.30;99.90
36800;DHT22;22752;51.960;5.886;2024-01-27T10:05:10;3.30;99.90
36800;DHT22;22752;51.960;5.886;2024-01-27T10:07:37;3.40;99.90
36800;DHT22;22752;51.960;5.886;2024-01-27T10:10:03;3.50;99.90
36800;DHT22;22752;51.960;5.886;2024-01-27T10:12:29;3.50;99.90
36800;DHT22;22752;51.960;5.886;2024-01-27T10:14:57;3.50;99.90
36800;DHT22;22752;51.960;5.886;2024-01-27T10:17:23;3.60;99.90
36800;DHT22;22752;51.960;5.886;2024-01-27T10:20:05;3.60;99.90
36800;DHT22;22752;51.960;5.886;2024-01-27T10:22:38;3.70;99.90
36800;DHT22;22752;51.960;5.886;2024-01-27T10:25:05;3.70;99.90
36800;DHT22;22752;51.960;5.886;2024-01-27T10:27:31;3.80;99.90
36800;DHT22;22752;51.960;5.886;2024-01-27T10:29:57;3.80;99.90
36800;DHT22;22752;51.960;5.886;2024-01-27T10:32:22;3.90;99.90
36800;DHT22;22752;51.960;5.886;2024-01-27T10:35:04;4.00;99.90
36800;DHT22;22752;51.960;5.886;2024-01-27T10:37:30;4.00;99.90
36800;DHT22;22752;51.960;5.886;2024-01-27T10:40:03;4.10;99.90
36800;DHT22;22752;51.960;5.886;2024-01-27T10:42:29;4.10;99.90
36800;DHT22;22752;51.960;5.886;2024-01-27T10:44:58;4.20;99.90
36800;DHT22;22752;51.960;5.886;2024-01-27T10:47:28;4.20;99.90
36800;DHT22;22752;51.960;5.886;2024-01-27T10:49:58;4.30;99.90
36800;DHT22;22752;51.960;5.886;2024-01-27T10:52:38;4.40;99.90
36800;DHT22;22752;51.960;5.886;2024-01-27T10:55:05;4.40;99.90
36800;DHT22;22752;51.960;5.886;2024-01-27T10:57:37;4.50;99.90
36800;DHT22;22752;51.960;5.886;2024-01-27T11:00:04;4.50;99.90
36800;DHT22;22752;51.960;5.886;2024-01-27T11:02:35;4.60;99.90
36800;DHT22;22752;51.960;5.886;2024-01-27T11:05:03;4.60;99.90
36800;DHT22;22752;51.960;5.886;2024-01-27T11:07:32;4.70;99.90
36800;DHT22;22752;51.960;5.886;2024-01-27T11:09:57;4.70;99.90
36800;DHT22;22752;51.960;5.886;2024-01-27T11:12:23;4.80;99.90
36800;DHT22;22752;51.960;5.886;2024-01-27T11:14:50;4.80;99.90
36800;DHT22;22752;51.960;5.886;2024-01-27T11:17:19;4.90;99.90
36800;DHT22;22752;51.960;5.886;2024-01-27T11:19:46;5.00;99.90
36800;DHT22;22752;51.960;5.886;2024-01-27T11:22:27;5.10;99.90
36800;DHT22;22752;51.960;5.886;2024-01-27T11:25:25;5.10;99.90
36800;DHT22;22752;51.960;5.886;2024-01-27T11:27:50;5.20;99.90
36800;DHT22;22752;51.960;5.886;2024-01-27T11:30:31;5.20;99.90
36800;DHT22;22752;51.960;5.886;2024-01-27T11:33:01;5.20;99.90
36800;DHT22;22752;51.960;5.886;2024-01-27T11:35:27;5.20;99.90
36800;DHT22;22752;51.960;5.886;2024-01-27T11:37:54;5.30;99.90
36800;DHT22;22752;51.960;5.886;2024-01-27T11:40:20;5.40;99.90
36800;DHT22;22752;51.960;5.886;2024-01-27T11:42:56;5.40;99.90
36800;DHT22;22752;51.960;5.886;2024-01-27T11:45:22;5.50;99.90
36800;DHT22;22752;51.960;5.886;2024-01-27T11:47:49;5.50;99.90
36800;DHT22;22752;51.960;5.886;2024-01-27T11:50:17;5.60;99.90
36800;DHT22;22752;51.960;5.886;2024-01-27T11:52:43;5.60;99.90
36800;DHT22;22752;51.960;5.886;2024-01-27T11:55:09;5.70;99.90
36800;DHT22;22752;51.960;5.886;2024-01-27T11:57:34;5.70;99.90
36800;DHT22;22752;51.960;5.886;2024-01-27T12:00:00;5.70;99.90
36800;DHT22;22752;51.960;5.886;2024-01-27T12:02:26;5.80;99.90
36800;DHT22;22752;51.960;5.886;2024-01-27T12:04:51;5.80;99.90
36800;DHT22;22752;51.960;5.886;2024-01-27T12:07:18;5.80;99.90
36800;DHT22;22752;51.960;5.886;2024-01-27T12:09:45;5.90;99.90
36800;DHT22;22752;51.960;5.886;2024-01-27T12:12:12;5.90;99.90
36800;DHT22;22752;51.960;5.886;2024-01-27T12:14:45;6.00;99.90
36800;DHT22;22752;51.960;5.886;2024-01-27T12:17:12;6.00;99.90
36800;DHT22;22752;51.960;5.886;2024-01-27T12:19:38;6.00;99.90
36800;DHT22;22752;51.960;5.886;2024-01-27T12:22:05;6.00;99.90
36800;DHT22;22752;51.960;5.886;2024-01-27T12:24:37;6.10;99.90
36800;DHT22;22752;51.960;5.886;2024-01-27T12:27:03;6.10;99.90
36800;DHT22;22752;51.960;5.886;2024-01-27T12:29:30;6.20;99.90
36800;DHT22;22752;51.960;5.886;2024-01-27T12:31:55;6.20;99.90
36800;DHT22;22752;51.960;5.886;2024-01-27T12:34:21;6.30;99.90
36800;DHT22;22752;51.960;5.886;2024-01-27T12:36:47;6.30;99.90
36800;DHT22;22752;51.960;5.886;2024-01-27T12:39:13;6.40;99.90
36800;DHT22;22752;51.960;5.886;2024-01-27T12:41:39;6.40;99.90
36800;DHT22;22752;51.960;5.886;2024-01-27T12:44:06;6.50;99.90
36800;DHT22;22752;51.960;5.886;2024-01-27T12:46:32;6.50;99.90
36800;DHT22;22752;51.960;5.886;2024-01-27T12:48:59;6.60;99.90
36800;DHT22;22752;51.960;5.886;2024-01-27T12:51:24;6.60;99.90
36800;DHT22;22752;51.960;5.886;2024-01-27T12:53:50;6.70;99.90
36800;DHT22;22752;51.960;5.886;2024-01-27T12:56:16;6.70;99.90
36800;DHT22;22752;51.960;5.886;2024-01-27T12:58:42;6.70;99.90
36800;DHT22;22752;51.960;5.886;2024-01-27T13:01:08;6.60;99.90
36800;DHT22;22752;51.960;5.886;2024-01-27T13:03:34;6.60;99.90
36800;DHT22;22752;51.960;5.886;2024-01-27T13:06:01;6.60;99.90
36800;DHT22;22752;51.960;5.886;2024-01-27T13:08:28;6.70;99.90
36800;DHT22;22752;51.960;5.886;2024-01-27T13:10:53;6.70;99.90
36800;DHT22;22752;51.960;5.886;2024-01-27T13:13:19;6.70;99.90
36800;DHT22;22752;51.960;5.886;2024-01-27T13:15:45;6.70;99.90
36800;DHT22;22752;51.960;5.886;2024-01-27T13:18:11;6.70;99.90
36800;DHT22;22752;51.960;5.886;2024-01-27T13:20:37;6.80;99.90
36800;DHT22;22752;51.960;5.886;2024-01-27T13:23:03;6.80;99.90
36800;DHT22;22752;51.960;5.886;2024-01-27T13:25:29;6.80;99.90
36800;DHT22;22752;51.960;5.886;2024-01-27T13:27:55;6.80;99.90
36800;DHT22;22752;51.960;5.886;2024-01-27T13:30:21;6.90;99.90
36800;DHT22;22752;51.960;5.886;2024-01-27T13:32:47;6.90;99.90
36800;DHT22;22752;51.960;5.886;2024-01-27T13:35:13;6.80;99.90
36800;DHT22;22752;51.960;5.886;2024-01-27T13:37:38;6.90;99.90
36800;DHT22;22752;51.960;5.886;2024-01-27T13:40:05;6.90;99.90
36800;DHT22;22752;51.960;5.886;2024-01-27T13:42:33;6.90;99.90
36800;DHT22;22752;51.960;5.886;2024-01-27T13:44:59;6.90;99.90
36800;DHT22;22752;51.960;5.886;2024-01-27T13:47:25;6.90;99.90
36800;DHT22;22752;51.960;5.886;2024-01-27T13:49:52;6.90;99.90
36800;DHT22;22752;51.960;5.886;2024-01-27T13:52:17;6.90;99.90
36800;DHT22;22752;51.960;5.886;2024-01-27T13:54:43;6.80;99.90
36800;DHT22;22752;51.960;5.886;2024-01-27T13:57:09;6.80;99.90
36800;DHT22;22752;51.960;5.886;2024-01-27T13:59:35;6.80;99.90
36800;DHT22;22752;51.960;5.886;2024-01-27T14:02:01;6.80;99.90
36800;DHT22;22752;51.960;5.886;2024-01-27T14:04:27;6.70;99.90
36800;DHT22;22752;51.960;5.886;2024-01-27T14:06:53;6.80;99.90
36800;DHT22;22752;51.960;5.886;2024-01-27T14:09:25;6.80;99.90
36800;DHT22;22752;51.960;5.886;2024-01-27T14:11:52;6.90;99.90
36800;DHT22;22752;51.960;5.886;2024-01-27T14:14:17;6.90;99.90
36800;DHT22;22752;51.960;5.886;2024-01-27T14:16:46;6.90;99.90
36800;DHT22;22752;51.960;5.886;2024-01-27T14:19:12;6.90;99.90
36800;DHT22;22752;51.960;5.886;2024-01-27T14:21:38;6.90;99.90
36800;DHT22;22752;51.960;5.886;2024-01-27T14:24:06;6.90;99.90
36800;DHT22;22752;51.960;5.886;2024-01-27T14:26:32;7.00;99.90
36800;DHT22;22752;51.960;5.886;2024-01-27T14:28:58;7.00;99.90
36800;DHT22;22752;51.960;5.886;2024-01-27T14:31:23;7.00;99.90
36800;DHT22;22752;51.960;5.886;2024-01-27T14:33:49;7.10;99.90
36800;DHT22;22752;51.960;5.886;2024-01-27T14:36:15;7.10;99.90
36800;DHT22;22752;51.960;5.886;2024-01-27T14:38:41;7.10;99.90
36800;DHT22;22752;51.960;5.886;2024-01-27T14:41:07;7.10;99.90
36800;DHT22;22752;51.960;5.886;2024-01-27T14:43:33;7.10;99.90
36800;DHT22;22752;51.960;5.886;2024-01-27T14:45:59;7.10;99.90
36800;DHT22;22752;51.960;5.886;2024-01-27T14:48:25;7.10;99.90
36800;DHT22;22752;51.960;5.886;2024-01-27T14:50:51;7.10;99.90
36800;DHT22;22752;51.960;5.886;2024-01-27T14:53:24;7.00;99.90
36800;DHT22;22752;51.960;5.886;2024-01-27T14:55:50;7.00;99.90
36800;DHT22;22752;51.960;5.886;2024-01-27T14:58:16;7.00;99.90
36800;DHT22;22752;51.960;5.886;2024-01-27T15:00:42;6.90;99.90
36800;DHT22;22752;51.960;5.886;2024-01-27T15:03:08;6.80;99.90
36800;DHT22;22752;51.960;5.886;2024-01-27T15:05:35;6.80;99.90
36800;DHT22;22752;51.960;5.886;2024-01-27T15:08:03;6.80;99.90
36800;DHT22;22752;51.960;5.886;2024-01-27T15:10:29;6.80;99.90
36800;DHT22;22752;51.960;5.886;2024-01-27T15:12:55;6.70;99.90
36800;DHT22;22752;51.960;5.886;2024-01-27T15:15:20;6.60;99.90
36800;DHT22;22752;51.960;5.886;2024-01-27T15:17:46;6.50;99.90
36800;DHT22;22752;51.960;5.886;2024-01-27T15:20:12;6.50;99.90
36800;DHT22;22752;51.960;5.886;2024-01-27T15:22:38;6.40;99.90
36800;DHT22;22752;51.960;5.886;2024-01-27T15:25:04;6.40;99.90
36800;DHT22;22752;51.960;5.886;2024-01-27T15:27:30;6.30;99.90
36800;DHT22;22752;51.960;5.886;2024-01-27T15:29:56;6.30;99.90
36800;DHT22;22752;51.960;5.886;2024-01-27T15:32:22;6.20;99.90
36800;DHT22;22752;51.960;5.886;2024-01-27T15:34:49;6.20;99.90
36800;DHT22;22752;51.960;5.886;2024-01-27T15:37:16;6.10;99.90
36800;DHT22;22752;51.960;5.886;2024-01-27T15:39:42;6.10;99.90
36800;DHT22;22752;51.960;5.886;2024-01-27T15:42:11;6.10;99.90